Time;durP1;ratioP1;P1;durP2;ratioP2;P2;SDS_P1;SDS_P2;PMS_P1;PMS_P2;Temp;Humidity;BMP_temperature;BMP_pressure;BME280_temperature;BME280_humidity;BME280_pressure;Samples;Min_cycle;Max_cycle;Signal;HPM_P1;HPM_P2
2023/04/08 00:01:57;;;;;;;36.75;16.63;;;;;;;10.33;100.00;101139.94;8328289;28;20153;-55
2023/04/08 00:05:59;;;;;;;42.10;17.75;;;;;;;10.41;100.00;101148.28;8325058;28;20037;-55
2023/04/08 00:09:59;;;;;;;34.90;17.27;;;;;;;10.37;100.00;101146.78;8326974;28;20049;-55
2023/04/08 00:14:02;;;;;;;37.58;17.80;;;;;;;10.44;100.00;101155.28;8326856;28;20573;-55
2023/04/08 00:18:02;;;;;;;33.38;17.42;;;;;;;10.39;100.00;101154.78;8326543;28;20163;-54
2023/04/08 00:22:03;;;;;;;41.05;16.10;;;;;;;10.39;100.00;101155.66;8326049;28;20049;-55
2023/04/08 00:26:03;;;;;;;38.33;16.95;;;;;;;10.45;100.00;101160.56;8327025;28;20088;-55
2023/04/08 00:30:05;;;;;;;46.33;18.80;;;;;;;10.42;100.00;101160.81;8326178;28;20037;-55
2023/04/08 00:34:06;;;;;;;42.60;18.33;;;;;;;10.45;100.00;101162.41;8327451;28;20099;-55
2023/04/08 00:38:07;;;;;;;40.00;17.50;;;;;;;10.46;100.00;101158.72;8326232;28;20067;-55
2023/04/08 00:42:08;;;;;;;45.75;18.15;;;;;;;10.51;100.00;101165.47;8324052;28;20618;-55
2023/04/08 00:46:09;;;;;;;38.33;16.63;;;;;;;10.52;100.00;101164.47;8324496;28;20436;-55
2023/04/08 00:50:10;;;;;;;44.88;19.65;;;;;;;10.49;100.00;101161.19;8324986;28;20048;-54
2023/04/08 00:54:11;;;;;;;37.67;18.42;;;;;;;10.47;100.00;101164.00;8326464;28;20042;-54
2023/04/08 00:58:12;;;;;;;49.38;19.20;;;;;;;10.43;100.00;101167.09;8324284;28;20338;-55
2023/04/08 01:02:25;;;;;;;44.15;19.33;;;;;;;10.44;100.00;101168.78;8326063;28;20124;-55
2023/04/08 01:06:42;;;;;;;45.60;18.73;;;;;;;10.44;100.00;101166.97;8325938;28;20037;-55
2023/04/08 01:10:47;;;;;;;41.10;19.23;;;;;;;10.38;100.00;101170.16;8325035;28;20084;-55
2023/04/08 01:14:51;;;;;;;39.58;18.52;;;;;;;10.38;100.00;101164.75;8325273;28;20038;-55
2023/04/08 01:18:53;;;;;;;39.80;19.20;;;;;;;10.40;100.00;101165.47;8325415;28;20381;-55
2023/04/08 01:23:12;;;;;;;45.03;20.02;;;;;;;10.43;100.00;101173.34;8325643;28;20522;-56
2023/04/08 01:27:13;;;;;;;49.58;22.05;;;;;;;10.38;100.00;101170.16;8325575;28;20045;-55
2023/04/08 01:31:14;;;;;;;52.65;21.42;;;;;;;10.31;100.00;101171.63;8322703;28;20048;-55
2023/04/08 01:35:15;;;;;;;45.60;22.65;;;;;;;10.28;100.00;101171.03;8322764;28;20040;-55
2023/04/08 01:39:17;;;;;;;53.65;22.83;;;;;;;10.27;100.00;101170.16;8319345;28;20037;-55
2023/04/08 01:43:20;;;;;;;50.30;23.05;;;;;;;10.26;100.00;101175.69;8321531;28;20120;-55
2023/04/08 01:47:21;;;;;;;52.42;23.98;;;;;;;10.29;100.00;101173.59;8321097;28;20034;-55
2023/04/08 01:51:22;;;;;;;51.85;23.50;;;;;;;10.17;100.00;101174.56;8322359;28;20038;-55
2023/04/08 01:55:25;;;;;;;55.25;25.60;;;;;;;10.13;100.00;101175.81;8322674;28;20037;-56
2023/04/08 01:59:30;;;;;;;61.95;25.73;;;;;;;10.11;100.00;101177.75;8323180;28;20163;-55
2023/04/08 02:03:33;;;;;;;49.13;25.63;;;;;;;10.07;100.00;101181.69;8323446;28;20045;-55
2023/04/08 02:07:33;;;;;;;63.63;27.60;;;;;;;10.10;100.00;101180.59;8324330;28;20412;-55
2023/04/08 02:11:34;;;;;;;62.95;28.73;;;;;;;10.08;100.00;101183.41;8324242;28;20034;-56
2023/04/08 02:15:40;;;;;;;68.00;29.38;;;;;;;10.04;100.00;101179.22;8324106;28;20536;-55
2023/04/08 02:20:05;;;;;;;74.00;30.42;;;;;;;10.02;100.00;101189.25;8323750;28;20045;-55
2023/04/08 02:24:08;;;;;;;61.35;28.08;;;;;;;10.01;100.00;101179.44;8324301;28;20450;-55
2023/04/08 02:28:10;;;;;;;68.05;29.90;;;;;;;9.98;100.00;101179.69;8324072;28;20121;-56
2023/04/08 02:32:11;;;;;;;70.03;29.15;;;;;;;9.99;100.00;101181.41;8323676;28;20579;-55
2023/04/08 02:36:13;;;;;;;74.38;28.20;;;;;;;9.97;100.00;101186.03;8324209;28;20451;-55
2023/04/08 02:40:31;;;;;;;76.80;30.67;;;;;;;9.96;100.00;101187.03;8322941;28;20041;-55
2023/04/08 02:44:32;;;;;;;68.93;30.70;;;;;;;9.98;100.00;101182.38;8323427;28;20044;-56
2023/04/08 02:48:36;;;;;;;69.72;30.27;;;;;;;9.88;100.00;101182.25;8323407;28;20037;-55
2023/04/08 02:52:36;;;;;;;66.72;30.55;;;;;;;9.93;100.00;101190.84;8323090;28;20038;-55
2023/04/08 02:56:37;;;;;;;70.70;30.23;;;;;;;9.91;100.00;101181.13;8323332;28;20061;-55
2023/04/08 03:00:38;;;;;;;64.25;30.05;;;;;;;9.84;100.00;101185.28;8322500;28;20573;-55
2023/04/08 03:04:39;;;;;;;72.25;31.60;;;;;;;9.84;100.00;101185.28;8322994;28;20080;-55
2023/04/08 03:08:39;;;;;;;83.22;32.38;;;;;;;9.84;100.00;101186.16;8322735;28;20041;-55
2023/04/08 03:12:40;;;;;;;74.00;31.48;;;;;;;9.83;100.00;101189.00;8323592;28;20029;-55
2023/04/08 03:16:40;;;;;;;83.13;32.38;;;;;;;9.78;100.00;101185.78;8322338;28;20084;-55
2023/04/08 03:20:41;;;;;;;72.15;31.88;;;;;;;9.75;100.00;101180.59;8322693;28;20034;-55
2023/04/08 03:24:41;;;;;;;76.50;32.75;;;;;;;9.76;100.00;101187.75;8324689;28;20408;-55
2023/04/08 03:28:42;;;;;;;86.63;32.85;;;;;;;9.76;100.00;101187.75;8329212;28;20037;-55
2023/04/08 03:32:42;;;;;;;77.13;33.55;;;;;;;9.80;100.00;101190.06;8328196;28;22083;-55
2023/04/08 03:36:43;;;;;;;76.80;33.67;;;;;;;9.79;100.00;101187.50;8328865;28;20068;-55
2023/04/08 03:40:43;;;;;;;76.60;34.05;;;;;;;9.80;100.00;101194.63;8328940;28;20523;-55
2023/04/08 03:44:44;;;;;;;74.57;33.10;;;;;;;9.83;100.00;101195.22;8327883;28;20045;-59
2023/04/08 03:48:45;;;;;;;86.03;33.03;;;;;;;9.77;100.00;101189.47;8328473;28;20044;-59
2023/04/08 03:52:45;;;;;;;92.63;35.28;;;;;;;9.79;100.00;101185.66;8328631;28;20046;-59
2023/04/08 03:56:45;;;;;;;90.88;32.80;;;;;;;9.77;100.00;101197.56;8328229;28;20437;-60
2023/04/08 04:00:46;;;;;;;79.47;32.90;;;;;;;9.84;100.00;101201.50;8327802;28;20064;-58
2023/04/08 04:04:46;;;;;;;94.63;34.55;;;;;;;9.86;100.00;101188.75;8326611;28;20045;-57
2023/04/08 04:08:46;;;;;;;87.20;34.08;;;;;;;9.91;100.00;101197.34;8327707;28;20385;-58
2023/04/08 04:12:49;;;;;;;90.38;33.35;;;;;;;9.82;100.00;101192.66;8326718;28;20079;-58
2023/04/08 04:16:49;;;;;;;87.90;33.40;;;;;;;9.94;100.00;101202.50;8327145;28;20084;-58
2023/04/08 04:20:50;;;;;;;82.18;33.45;;;;;;;9.86;100.00;101199.56;8327523;28;20037;-58
2023/04/08 04:24:50;;;;;;;90.43;32.75;;;;;;;9.84;100.00;101206.91;8327702;28;20045;-57
2023/04/08 04:28:51;;;;;;;82.32;33.88;;;;;;;9.87;100.00;101206.66;8325948;28;20048;-58
2023/04/08 04:32:51;;;;;;;88.43;34.50;;;;;;;9.78;100.00;101207.38;8327702;28;20060;-58
2023/04/08 04:36:53;;;;;;;86.80;34.58;;;;;;;9.85;100.00;101214.00;8326268;28;20443;-57
2023/04/08 04:40:53;;;;;;;86.47;34.25;;;;;;;9.87;100.00;101212.06;8327519;28;20042;-57
2023/04/08 04:44:54;;;;;;;94.57;34.45;;;;;;;9.92;100.00;101223.38;8326859;28;20504;-57
2023/04/08 04:48:55;;;;;;;81.32;33.42;;;;;;;9.89;100.00;101218.22;8327121;28;20103;-57
2023/04/08 04:52:55;;;;;;;83.65;33.22;;;;;;;9.84;100.00;101225.81;8327129;28;20048;-57
2023/04/08 04:56:56;;;;;;;89.18;34.38;;;;;;;9.90;100.00;101222.63;8326693;28;20037;-58
2023/04/08 05:00:57;;;;;;;83.22;33.83;;;;;;;9.91;100.00;101237.84;8325074;28;20412;-58
2023/04/08 05:04:57;;;;;;;82.50;33.63;;;;;;;9.89;100.00;101226.31;8325868;28;20045;-58
2023/04/08 05:08:58;;;;;;;87.25;33.35;;;;;;;9.93;100.00;101225.09;8326564;28;20041;-59
2023/04/08 05:12:58;;;;;;;84.63;33.08;;;;;;;9.94;100.00;101234.91;8326574;28;20047;-59
2023/04/08 05:16:58;;;;;;;79.43;33.35;;;;;;;9.92;100.00;101236.88;8325554;28;20042;-59
2023/04/08 05:20:59;;;;;;;76.40;33.10;;;;;;;9.93;100.00;101238.59;8323836;28;20545;-58
2023/04/08 05:25:00;;;;;;;75.90;29.80;;;;;;;9.92;100.00;101247.69;8325418;28;20056;-58
2023/04/08 05:29:00;;;;;;;76.45;31.25;;;;;;;9.95;100.00;101244.75;8324412;28;20526;-58
2023/04/08 05:33:01;;;;;;;96.05;32.17;;;;;;;9.96;100.00;101249.16;8322854;28;20037;-58
2023/04/08 05:37:01;;;;;;;106.70;36.83;;;;;;;9.99;100.00;101243.53;8323263;28;20484;-58
2023/04/08 05:41:02;;;;;;;104.85;36.88;;;;;;;9.98;100.00;101258.03;8323033;28;20045;-55
2023/04/08 05:45:03;;;;;;;99.15;36.15;;;;;;;9.92;100.00;101263.91;8323380;28;20115;-57
2023/04/08 05:49:03;;;;;;;95.43;34.83;;;;;;;9.97;100.00;101261.69;8323144;28;20053;-56
2023/04/08 05:53:04;;;;;;;93.13;35.38;;;;;;;9.97;100.00;101264.38;8323942;28;20064;-55
2023/04/08 05:57:05;;;;;;;95.82;36.60;;;;;;;10.03;100.00;101264.78;8322612;28;20403;-55
2023/04/08 06:01:06;;;;;;;97.53;36.47;;;;;;;10.09;100.00;101271.56;8305576;28;20038;-55
2023/04/08 06:05:06;;;;;;;95.93;34.17;;;;;;;10.17;100.00;101273.69;8297258;28;20111;-55
2023/04/08 06:09:08;;;;;;;98.55;39.10;;;;;;;10.18;100.00;101276.25;8298428;28;20059;-55
2023/04/08 06:13:09;;;;;;;107.22;39.58;;;;;;;10.23;100.00;101284.88;8320906;28;20124;-55
2023/04/08 06:17:09;;;;;;;107.93;38.10;;;;;;;10.34;100.00;101281.34;8322658;28;20041;-55
2023/04/08 06:21:10;;;;;;;106.65;38.75;;;;;;;10.26;100.00;101290.06;8322181;28;20515;-58
2023/04/08 06:25:10;;;;;;;94.88;36.47;;;;;;;10.19;100.00;101291.53;8323500;28;20049;-58
2023/04/08 06:29:11;;;;;;;101.70;37.00;;;;;;;10.32;100.00;101294.09;8324082;28;20539;-59
2023/04/08 06:33:11;;;;;;;102.43;37.30;;;;;;;10.43;100.00;101299.53;8319708;28;20044;-59
2023/04/08 06:37:12;;;;;;;107.78;36.00;;;;;;;10.53;100.00;101304.09;8319148;28;20045;-58
2023/04/08 06:41:12;;;;;;;108.68;36.85;;;;;;;10.44;100.00;101312.94;8317542;28;20091;-59
2023/04/08 06:45:13;;;;;;;106.97;40.15;;;;;;;10.56;100.00;101309.28;8322480;28;20061;-58
2023/04/08 06:49:13;;;;;;;114.68;37.60;;;;;;;10.62;100.00;101308.78;8320850;28;20432;-59
2023/04/08 06:53:14;;;;;;;110.93;40.65;;;;;;;10.58;100.00;101317.25;8316510;28;20041;-59
2023/04/08 06:57:14;;;;;;;107.85;40.22;;;;;;;10.51;100.00;101316.88;8307543;28;20037;-58
2023/04/08 07:01:15;;;;;;;106.70;41.95;;;;;;;10.42;100.00;101322.13;8307933;28;20385;-59
2023/04/08 07:05:15;;;;;;;113.07;40.00;;;;;;;10.70;100.00;101325.25;8307899;28;20523;-59
2023/04/08 07:09:16;;;;;;;113.20;41.65;;;;;;;10.67;100.00;101324.66;8311172;28;20496;-58
2023/04/08 07:13:16;;;;;;;106.55;41.05;;;;;;;10.78;100.00;101324.63;8313045;28;20045;-59
2023/04/08 07:17:17;;;;;;;116.60;41.53;;;;;;;10.82;100.00;101332.38;8305448;28;20033;-59
2023/04/08 07:21:17;;;;;;;121.20;42.15;;;;;;;10.86;100.00;101333.84;8305530;28;20045;-59
2023/04/08 07:25:18;;;;;;;105.45;39.63;;;;;;;10.98;100.00;101335.59;8329013;28;20033;-60
2023/04/08 07:29:18;;;;;;;111.88;41.90;;;;;;;11.14;100.00;101344.22;8324237;28;20128;-60
2023/04/08 07:33:19;;;;;;;109.00;43.63;;;;;;;11.02;100.00;101344.31;8327668;28;20121;-59
2023/04/08 07:37:19;;;;;;;107.85;39.58;;;;;;;11.16;100.00;101350.34;8324833;28;20118;-59
2023/04/08 07:41:20;;;;;;;104.55;38.72;;;;;;;11.61;100.00;101360.13;8327123;28;20116;-59
2023/04/08 07:45:20;;;;;;;93.85;38.42;;;;;;;11.73;100.00;101352.84;8326781;28;20067;-59
2023/04/08 07:49:21;;;;;;;93.78;38.83;;;;;;;11.59;100.00;101359.38;8327537;28;20045;-59
2023/04/08 07:53:23;;;;;;;110.60;42.80;;;;;;;11.83;100.00;101364.63;8322980;28;20072;-55
2023/04/08 07:57:25;;;;;;;101.18;38.45;;;;;;;11.82;100.00;101374.63;8324739;28;20033;-56
2023/04/08 08:01:28;;;;;;;88.25;38.25;;;;;;;11.79;100.00;101379.44;8321675;28;20221;-56
2023/04/08 08:05:29;;;;;;;100.75;40.08;;;;;;;11.61;100.00;101376.38;8324690;28;20055;-56
2023/04/08 08:09:29;;;;;;;97.97;39.42;;;;;;;11.40;100.00;101383.53;8321336;28;20060;-56
2023/04/08 08:13:30;;;;;;;93.28;39.38;;;;;;;11.53;100.00;101384.25;8310622;28;20098;-55
2023/04/08 08:17:32;;;;;;;92.80;40.47;;;;;;;11.73;100.00;101385.38;8323844;28;20041;-55
2023/04/08 08:21:35;;;;;;;98.20;37.85;;;;;;;11.88;100.00;101395.81;8325856;28;20849;-56
2023/04/08 08:25:36;;;;;;;90.93;38.35;;;;;;;12.03;100.00;101385.53;8308674;28;20041;-55
2023/04/08 08:29:36;;;;;;;92.63;38.05;;;;;;;12.33;100.00;101392.91;8314768;28;20045;-59
2023/04/08 08:33:37;;;;;;;84.18;37.70;;;;;;;13.16;100.00;101391.91;8311780;28;20496;-59
2023/04/08 08:37:37;;;;;;;78.57;37.67;;;;;;;13.72;93.90;101388.53;8319460;28;20120;-59
2023/04/08 08:41:38;;;;;;;75.63;35.40;;;;;;;13.83;89.59;101393.00;8320045;28;20053;-59
2023/04/08 08:45:40;;;;;;;67.55;32.65;;;;;;;13.17;89.86;101399.91;8310352;28;20088;-58
2023/04/08 08:49:41;;;;;;;61.90;31.23;;;;;;;12.81;89.92;101408.53;8317949;28;20095;-59
2023/04/08 08:53:44;;;;;;;63.75;33.53;;;;;;;12.46;88.68;101408.00;8318002;28;20072;-60
2023/04/08 08:57:45;;;;;;;63.25;32.97;;;;;;;12.97;86.92;101397.22;8321250;28;20051;-60
2023/04/08 09:01:45;;;;;;;60.78;33.03;;;;;;;13.12;82.59;101420.34;8320310;28;20049;-59
2023/04/08 09:05:51;;;;;;;63.72;32.80;;;;;;;13.12;82.73;101417.63;8307496;28;20045;-59
2023/04/08 09:09:53;;;;;;;69.30;35.30;;;;;;;13.64;82.51;101412.81;8313223;28;20033;-59
2023/04/08 09:13:56;;;;;;;71.00;37.80;;;;;;;13.26;80.75;101411.81;8313513;28;20052;-57
2023/04/08 09:17:57;;;;;;;67.70;36.33;;;;;;;13.52;82.09;101415.81;8316821;28;20071;-59
2023/04/08 09:22:08;;;;;;;71.57;34.92;;;;;;;13.61;81.18;101414.97;8297901;28;20505;-59
2023/04/08 09:30:26;;;;;;;75.78;39.60;;;;;;;13.67;82.48;101419.88;8265613;28;20407;-53
2023/04/08 09:34:27;;;;;;;70.70;38.97;;;;;;;13.48;78.89;101420.63;8275952;28;20037;-53
2023/04/08 09:38:28;;;;;;;71.47;35.88;;;;;;;13.57;79.74;101424.38;8312487;28;20124;-54
2023/04/08 09:42:30;;;;;;;75.63;36.55;;;;;;;14.00;82.67;101419.50;8311671;28;20044;-54
2023/04/08 09:46:38;;;;;;;75.50;37.58;;;;;;;14.08;84.29;101424.22;8312980;28;20037;-53
2023/04/08 09:50:44;;;;;;;81.85;40.55;;;;;;;13.96;83.05;101423.50;8312832;28;20046;-53
2023/04/08 09:54:58;;;;;;;79.38;38.05;;;;;;;14.44;82.76;101431.75;8311926;28;20038;-53
2023/04/08 09:59:08;;;;;;;87.75;41.88;;;;;;;14.52;78.13;101424.56;8311850;28;20092;-53
2023/04/08 10:03:19;;;;;;;85.75;41.60;;;;;;;14.27;79.84;101425.16;8310355;28;20034;-53
2023/04/08 10:07:20;;;;;;;95.05;44.85;;;;;;;13.73;79.86;101430.19;8309684;28;20115;-53
2023/04/08 10:11:21;;;;;;;87.32;43.53;;;;;;;13.93;81.09;101426.50;8309317;28;20045;-54
2023/04/08 10:15:39;;;;;;;90.43;43.80;;;;;;;13.77;79.53;101423.47;8301252;28;20034;-53
2023/04/08 10:19:40;;;;;;;93.28;42.65;;;;;;;13.61;80.58;101425.84;8296965;28;20037;-53
2023/04/08 10:23:54;;;;;;;92.05;44.28;;;;;;;13.46;80.57;101421.78;8302259;28;20512;-53
2023/04/08 10:27:54;;;;;;;100.17;45.13;;;;;;;13.53;80.78;101444.69;8304877;28;20515;-59
2023/04/08 10:31:56;;;;;;;88.13;43.47;;;;;;;14.40;77.76;101444.78;8300065;28;20412;-58
2023/04/08 10:36:12;;;;;;;85.72;43.72;;;;;;;15.34;75.52;101433.91;8299556;28;20033;-59
2023/04/08 10:40:20;;;;;;;87.40;41.92;;;;;;;15.57;74.62;101424.34;8288481;28;20104;-59
2023/04/08 10:44:23;;;;;;;86.32;42.47;;;;;;;14.45;75.79;101423.44;8287148;28;20042;-59
2023/04/08 10:48:24;;;;;;;88.03;43.05;;;;;;;14.25;78.25;101419.00;8254012;28;20046;-51
2023/04/08 10:52:26;;;;;;;87.78;43.13;;;;;;;14.78;79.37;101414.81;8262969;28;20044;-58
2023/04/08 10:56:28;;;;;;;87.72;43.53;;;;;;;15.20;77.06;101410.72;8280015;28;20124;-58
2023/04/08 11:00:34;;;;;;;91.70;44.28;;;;;;;14.56;77.44;101404.25;8281156;28;20041;-59
2023/04/08 11:04:41;;;;;;;87.68;43.95;;;;;;;14.73;76.95;101416.28;8278517;28;20037;-59
2023/04/08 11:08:43;;;;;;;85.80;42.72;;;;;;;15.28;76.51;101413.53;8284686;28;20052;-59
2023/04/08 11:12:44;;;;;;;84.28;43.85;;;;;;;14.98;75.35;101413.75;8277643;28;20045;-54
2023/04/08 11:16:44;;;;;;;85.90;41.75;;;;;;;14.73;76.99;101408.94;8279036;28;20153;-54
2023/04/08 11:20:45;;;;;;;84.20;44.78;;;;;;;14.66;76.08;101410.53;8286280;28;20052;-54
2023/04/08 11:24:46;;;;;;;82.32;44.08;;;;;;;14.31;77.28;101410.28;8287647;28;20046;-54
2023/04/08 11:28:49;;;;;;;76.63;40.63;;;;;;;14.21;75.63;101413.97;8286881;28;20041;-53
2023/04/08 11:32:51;;;;;;;77.70;40.55;;;;;;;14.63;74.62;101410.81;8285179;28;20041;-54
2023/04/08 11:36:51;;;;;;;81.22;42.17;;;;;;;14.57;76.84;101416.84;8284850;28;20030;-54
2023/04/08 11:40:53;;;;;;;68.30;38.47;;;;;;;14.60;76.35;101411.13;8284330;28;20341;-54
2023/04/08 11:44:54;;;;;;;65.07;35.67;;;;;;;14.67;77.00;101401.34;8279600;28;20041;-55
2023/04/08 11:48:57;;;;;;;61.58;32.88;;;;;;;14.51;76.14;101411.97;8276619;28;20038;-54
2023/04/08 11:52:58;;;;;;;53.95;31.77;;;;;;;14.27;76.87;101413.41;8280549;28;20042;-54
2023/04/08 11:56:59;;;;;;;56.22;31.55;;;;;;;14.04;78.73;101411.91;8284153;28;20626;-54
2023/04/08 12:01:00;;;;;;;47.65;27.92;;;;;;;13.82;79.24;101413.03;8282467;28;20100;-55
2023/04/08 12:05:01;;;;;;;47.85;27.80;;;;;;;13.88;77.40;101412.47;8264575;28;20623;-54
2023/04/08 12:09:02;;;;;;;41.88;28.00;;;;;;;14.27;75.89;101419.69;8257131;28;20437;-54
2023/04/08 12:13:02;;;;;;;39.50;24.92;;;;;;;14.43;73.23;101417.28;8256030;28;20042;-55
2023/04/08 12:17:02;;;;;;;36.70;22.17;;;;;;;14.23;74.23;101418.28;8266551;28;20508;-59
2023/04/08 12:21:03;;;;;;;33.80;21.50;;;;;;;13.97;74.58;101395.34;8286451;28;20466;-59
2023/04/08 12:25:05;;;;;;;39.03;22.58;;;;;;;13.83;73.77;101409.31;8285225;28;20068;-59
2023/04/08 12:29:05;;;;;;;35.17;22.67;;;;;;;13.93;74.53;101415.63;8277311;28;20136;-60
2023/04/08 12:33:06;;;;;;;33.45;22.30;;;;;;;13.80;73.79;101420.47;8287342;28;20057;-59
2023/04/08 12:37:06;;;;;;;32.65;22.30;;;;;;;13.70;72.87;101414.16;8280747;28;20484;-59
2023/04/08 12:41:06;;;;;;;30.33;20.15;;;;;;;13.61;69.08;101420.41;8283039;28;20038;-59
2023/04/08 12:45:07;;;;;;;32.72;20.35;;;;;;;13.50;65.48;101421.38;8285411;28;20493;-60
2023/04/08 12:49:08;;;;;;;30.35;19.50;;;;;;;13.50;65.83;101423.22;8284679;28;20432;-59
2023/04/08 12:53:09;;;;;;;35.40;21.48;;;;;;;13.63;68.02;101418.41;8286123;28;20038;-59
2023/04/08 12:57:10;;;;;;;34.53;22.05;;;;;;;13.62;69.41;101422.13;8284311;28;20038;-60
2023/04/08 13:01:11;;;;;;;35.60;21.73;;;;;;;13.92;70.54;101418.47;8284741;28;20054;-60
2023/04/08 13:05:11;;;;;;;37.03;22.95;;;;;;;13.91;68.42;101414.06;8285951;28;20042;-60
2023/04/08 13:09:13;;;;;;;39.53;24.33;;;;;;;13.65;70.39;101421.84;8283756;28;20045;-55
2023/04/08 13:13:14;;;;;;;33.28;21.58;;;;;;;13.68;67.90;101421.56;8285794;28;20049;-55
2023/04/08 13:17:15;;;;;;;35.95;22.52;;;;;;;13.63;67.19;101418.41;8286060;28;20115;-55
2023/04/08 13:21:15;;;;;;;44.88;27.27;;;;;;;13.58;70.16;101415.25;8272115;28;20038;-55
2023/04/08 13:25:16;;;;;;;49.35;29.13;;;;;;;13.52;69.33;101415.81;8267908;28;20041;-56
2023/04/08 13:29:16;;;;;;;52.78;28.73;;;;;;;13.48;70.34;101403.50;8286227;28;20153;-55
2023/04/08 13:33:16;;;;;;;59.00;30.88;;;;;;;13.51;70.57;101404.06;8286473;28;20037;-56
2023/04/08 13:37:17;;;;;;;50.72;29.92;;;;;;;13.79;70.97;101414.16;8286654;28;20107;-56
2023/04/08 13:41:19;;;;;;;57.85;32.15;;;;;;;13.69;70.52;101402.41;8285520;28;20516;-55
2023/04/08 13:45:20;;;;;;;64.90;33.30;;;;;;;13.65;71.16;101402.81;8283750;28;20034;-56
2023/04/08 13:49:20;;;;;;;60.33;33.85;;;;;;;13.80;71.24;101398.72;8285255;28;20049;-54
2023/04/08 13:53:21;;;;;;;67.90;33.65;;;;;;;13.95;70.93;101389.16;8284331;28;20042;-55
2023/04/08 13:57:21;;;;;;;62.58;32.60;;;;;;;14.15;70.61;101393.59;8282387;28;20030;-55
2023/04/08 14:01:22;;;;;;;61.60;33.22;;;;;;;14.20;69.35;101395.91;8286645;28;20030;-55
2023/04/08 14:05:22;;;;;;;52.15;29.08;;;;;;;13.97;67.49;101403.50;8285420;28;20044;-55
2023/04/08 14:09:23;;;;;;;59.35;31.67;;;;;;;13.94;68.90;101395.59;8284282;28;20461;-54
2023/04/08 14:13:23;;;;;;;55.00;30.20;;;;;;;14.08;69.13;101403.34;8283131;28;20038;-54
2023/04/08 14:17:24;;;;;;;56.15;29.17;;;;;;;14.13;67.17;101400.19;8289358;28;20049;-55
2023/04/08 14:21:24;;;;;;;62.72;31.50;;;;;;;13.95;68.49;101402.75;8291183;28;20037;-55
2023/04/08 14:25:25;;;;;;;47.03;26.60;;;;;;;13.69;65.81;101398.81;8290433;28;20049;-55
2023/04/08 14:29:25;;;;;;;50.63;28.83;;;;;;;13.68;67.59;101399.81;8292246;28;20053;-54
2023/04/08 14:33:26;;;;;;;57.83;31.42;;;;;;;13.65;68.36;101406.41;8290384;28;20383;-54
2023/04/08 14:37:26;;;;;;;52.28;29.10;;;;;;;13.77;70.14;101404.44;8291050;28;20065;-54
2023/04/08 14:41:27;;;;;;;38.33;22.45;;;;;;;13.85;66.19;101401.88;8288448;28;20057;-55
2023/04/08 14:45:27;;;;;;;39.70;20.35;;;;;;;13.82;64.26;101399.44;8289854;28;20515;-60
2023/04/08 14:49:27;;;;;;;27.83;15.90;;;;;;;13.91;63.97;101395.88;8291205;28;20042;-60
2023/04/08 14:53:28;;;;;;;17.88;9.90;;;;;;;13.83;62.10;101403.88;8291352;28;20046;-59
2023/04/08 14:57:28;;;;;;;11.80;8.20;;;;;;;13.77;62.30;101404.44;8290166;28;20033;-59
2023/04/08 15:01:31;;;;;;;11.80;8.35;;;;;;;13.61;63.02;101398.66;8291027;28;20060;-58
2023/04/08 15:05:31;;;;;;;17.50;10.18;;;;;;;13.54;64.80;101405.63;8290100;28;20046;-59
2023/04/08 15:09:32;;;;;;;14.20;9.43;;;;;;;13.53;64.81;101412.06;8290272;28;20042;-58
2023/04/08 15:13:34;;;;;;;16.25;10.02;;;;;;;13.56;66.14;101400.94;8290519;28;20057;-59
2023/04/08 15:17:35;;;;;;;21.35;12.25;;;;;;;13.55;68.18;101407.38;8288373;28;20070;-59
2023/04/08 15:21:35;;;;;;;21.65;12.93;;;;;;;13.54;67.92;101409.22;8287560;28;20172;-59
2023/04/08 15:25:36;;;;;;;21.33;12.65;;;;;;;13.54;68.25;101403.78;8287937;28;20377;-59
2023/04/08 15:29:36;;;;;;;22.95;13.43;;;;;;;13.55;68.63;101415.53;8288115;28;20077;-59
2023/04/08 15:33:40;;;;;;;21.27;13.82;;;;;;;13.53;69.73;101406.66;8289821;28;20184;-59
2023/04/08 15:37:40;;;;;;;27.57;16.00;;;;;;;13.52;70.18;101410.38;8288350;28;20104;-59
2023/04/08 15:41:41;;;;;;;27.98;14.38;;;;;;;13.52;71.18;101413.09;8288895;28;20041;-59
2023/04/08 15:45:43;;;;;;;22.83;13.40;;;;;;;13.40;71.52;101411.47;8288742;28;20049;-59
2023/04/08 15:49:43;;;;;;;21.05;12.60;;;;;;;13.66;72.44;101412.69;8289029;28;20102;-59
2023/04/08 15:53:44;;;;;;;18.48;11.07;;;;;;;13.60;70.92;101413.22;8288726;28;20046;-59
2023/04/08 15:57:44;;;;;;;16.42;11.52;;;;;;;13.59;73.17;101416.97;8289062;28;20048;-60
2023/04/08 16:01:45;;;;;;;22.05;12.23;;;;;;;13.44;73.14;101412.91;8288622;28;20047;-60
2023/04/08 16:05:45;;;;;;;19.20;11.95;;;;;;;13.49;73.43;101405.22;8286082;28;20048;-60
2023/04/08 16:09:46;;;;;;;21.38;13.88;;;;;;;13.38;73.59;101413.44;8285577;28;20449;-60
2023/04/08 16:13:46;;;;;;;20.00;13.43;;;;;;;13.38;74.06;101402.56;8283145;28;20042;-60
2023/04/08 16:17:53;;;;;;;21.63;14.23;;;;;;;13.44;74.88;101412.91;8287788;28;20347;-59
2023/04/08 16:21:54;;;;;;;19.23;13.73;;;;;;;13.46;74.72;101398.22;8283492;28;20076;-58
2023/04/08 16:25:54;;;;;;;20.20;14.15;;;;;;;13.54;75.30;101408.34;8268513;28;20038;-58
2023/04/08 16:29:56;;;;;;;21.50;14.57;;;;;;;13.61;75.89;101402.22;8278166;28;20045;-58
2023/04/08 16:33:56;;;;;;;23.63;15.05;;;;;;;13.48;75.85;101406.22;8289984;28;20042;-58
2023/04/08 16:37:57;;;;;;;24.92;15.45;;;;;;;13.34;75.95;101409.28;8286608;28;20107;-58
2023/04/08 16:41:59;;;;;;;22.58;16.10;;;;;;;13.27;76.46;101410.84;8288595;28;20404;-58
2023/04/08 16:46:08;;;;;;;22.95;16.30;;;;;;;13.33;76.49;101404.88;8287386;28;20052;-57
2023/04/08 16:50:09;;;;;;;26.83;16.88;;;;;;;13.16;78.22;101403.66;8288233;28;20040;-59
2023/04/08 16:54:09;;;;;;;25.02;17.70;;;;;;;13.21;78.67;101412.22;8291757;28;20034;-59
2023/04/08 16:58:10;;;;;;;25.95;18.05;;;;;;;13.23;78.64;101409.38;8284264;28;20038;-58
2023/04/08 17:02:10;;;;;;;27.17;19.40;;;;;;;13.20;79.70;101409.63;8284997;28;20042;-59
2023/04/08 17:06:13;;;;;;;28.30;21.08;;;;;;;13.11;79.96;101415.88;8284576;28;20096;-58
2023/04/08 17:10:14;;;;;;;32.10;22.33;;;;;;;13.04;80.77;101414.72;8286737;28;20042;-58
2023/04/08 17:14:15;;;;;;;32.85;23.17;;;;;;;13.09;81.04;101418.72;8283074;28;20402;-59
2023/04/08 17:18:15;;;;;;;33.70;23.02;;;;;;;13.05;81.24;101411.03;8286942;28;20037;-59
2023/04/08 17:22:16;;;;;;;33.47;23.77;;;;;;;13.02;81.45;101416.72;8287327;28;20045;-59
2023/04/08 17:26:16;;;;;;;34.53;25.45;;;;;;;12.94;81.97;101421.91;8275707;28;20124;-59
2023/04/08 17:30:17;;;;;;;30.13;23.23;;;;;;;12.82;82.47;101409.41;8285625;28;20060;-59
2023/04/08 17:34:17;;;;;;;34.80;25.33;;;;;;;12.81;82.67;101418.56;8284971;28;20489;-55
2023/04/08 17:38:18;;;;;;;35.33;24.67;;;;;;;12.74;83.67;101414.63;8283788;28;20500;-58
2023/04/08 17:42:21;;;;;;;35.95;25.63;;;;;;;12.64;84.27;101421.84;8282506;28;20165;-57
2023/04/08 17:46:21;;;;;;;35.05;26.35;;;;;;;12.50;84.90;101420.31;8284528;28;20042;-58
2023/04/08 17:50:22;;;;;;;36.65;25.90;;;;;;;12.66;84.71;101425.31;8289740;28;20563;-56
2023/04/08 17:54:23;;;;;;;34.33;25.05;;;;;;;12.56;84.56;101424.38;8297979;28;20696;-58
2023/04/08 17:58:23;;;;;;;35.13;25.10;;;;;;;12.40;85.09;101423.94;8291218;28;20591;-58
2023/04/08 18:02:26;;;;;;;36.45;25.65;;;;;;;12.25;86.76;101425.22;8282926;28;20393;-56
2023/04/08 18:06:27;;;;;;;39.10;26.60;;;;;;;12.17;87.00;101427.75;8291591;28;20041;-57
2023/04/08 18:10:27;;;;;;;36.35;26.40;;;;;;;12.14;87.20;101434.25;8289985;28;20040;-58
2023/04/08 18:14:28;;;;;;;38.50;27.27;;;;;;;11.99;88.40;101429.28;8292439;28;20046;-57
2023/04/08 18:18:29;;;;;;;41.50;27.45;;;;;;;11.89;89.21;101438.16;8287527;28;20038;-56